Time;durP1;ratioP1;P1;durP2;ratioP2;P2;SDS_P1;SDS_P2;PMS_P1;PMS_P2;Temp;Humidity;BMP_temperature;BMP_pressure;BME280_temperature;BME280_humidity;BME280_pressure;Samples;Min_cycle;Max_cycle;Signal;HPM_P1;HPM_P2
2021/11/14 00:01:44;;;;;;;4.25;1.50;;;;;;;6.34;100.00;101307.28;4951782;28;20515;-60
2021/11/14 00:04:29;;;;;;;2.00;1.60;;;;;;;6.31;100.00;101304.59;4952334;29;20419;-59
2021/11/14 00:07:16;;;;;;;4.43;1.60;;;;;;;6.19;100.00;101307.84;4969139;28;20075;-62
2021/11/14 00:10:02;;;;;;;4.03;1.70;;;;;;;6.27;100.00;101308.00;4952720;28;20063;-58
2021/11/14 00:12:48;;;;;;;2.00;1.30;;;;;;;6.20;100.00;101314.88;4941949;28;20069;-62
2021/11/14 00:15:32;;;;;;;2.50;1.33;;;;;;;6.01;100.00;101311.81;4961797;28;20054;-61
2021/11/14 00:18:17;;;;;;;2.15;1.50;;;;;;;6.18;100.00;101311.34;4952813;28;20053;-60
2021/11/14 00:21:02;;;;;;;2.97;1.80;;;;;;;6.19;100.00;101320.13;4951448;28;20050;-67
2021/11/14 00:23:47;;;;;;;2.33;1.48;;;;;;;6.34;100.00;101320.47;4955229;28;20054;-60
2021/11/14 00:26:32;;;;;;;5.82;1.95;;;;;;;6.45;100.00;101327.72;4958548;28;20062;-61
2021/11/14 00:29:17;;;;;;;3.08;1.42;;;;;;;6.32;100.00;101303.72;4951449;28;20586;-57
2021/11/14 00:32:03;;;;;;;9.75;1.70;;;;;;;6.48;100.00;101325.16;4960569;28;20120;-58
2021/11/14 00:34:51;;;;;;;2.63;1.63;;;;;;;6.55;100.00;101324.44;4962574;28;20066;-58
2021/11/14 00:37:37;;;;;;;4.95;2.13;;;;;;;6.57;100.00;101319.22;4951175;28;20058;-59
2021/11/14 00:40:26;;;;;;;3.22;2.05;;;;;;;6.56;100.00;101322.72;4953317;28;20070;-62
2021/11/14 00:43:11;;;;;;;2.80;2.17;;;;;;;6.60;100.00;101325.41;4967503;28;20142;-60
2021/11/14 00:45:57;;;;;;;11.50;2.30;;;;;;;6.63;100.00;101328.13;4954403;28;20057;-62
2021/11/14 00:48:42;;;;;;;5.43;1.88;;;;;;;6.70;100.00;101321.22;4939855;28;20109;-64
2021/11/14 00:51:29;;;;;;;5.10;2.40;;;;;;;6.74;100.00;101337.16;4957124;28;20531;-61
2021/11/14 00:54:14;;;;;;;2.78;1.52;;;;;;;6.47;100.00;101327.75;4964792;28;20062;-62
2021/11/14 00:56:59;;;;;;;2.35;1.50;;;;;;;6.22;100.00;101322.84;4969588;28;20053;-58
2021/11/14 00:59:43;;;;;;;2.22;1.42;;;;;;;6.21;100.00;101324.56;4958936;28;20050;-60
2021/11/14 01:02:27;;;;;;;2.00;1.50;;;;;;;6.15;100.00;101323.53;4967338;28;20666;-62
2021/11/14 01:05:14;;;;;;;4.05;1.30;;;;;;;6.08;100.00;101324.25;4950348;28;20062;-58
2021/11/14 01:07:59;;;;;;;2.90;1.33;;;;;;;6.12;100.00;101329.63;4957422;28;20423;-65
2021/11/14 01:10:50;;;;;;;1.92;1.02;;;;;;;6.32;100.00;101328.31;4969101;28;20521;-59
2021/11/14 01:13:38;;;;;;;2.40;1.13;;;;;;;6.41;100.00;101328.53;4965864;28;20074;-61
2021/11/14 01:16:25;;;;;;;1.92;1.10;;;;;;;6.20;100.00;101333.31;4951510;29;20113;-62
2021/11/14 01:19:09;;;;;;;2.22;1.27;;;;;;;6.25;100.00;101330.81;4950613;28;20054;-58
2021/11/14 01:21:54;;;;;;;1.77;1.10;;;;;;;6.21;100.00;101337.72;4958544;28;20058;-61
2021/11/14 01:24:39;;;;;;;3.13;1.55;;;;;;;6.13;100.00;101344.56;4936357;28;20146;-62
2021/11/14 01:27:23;;;;;;;2.58;1.60;;;;;;;6.11;100.00;101341.03;4960956;28;20384;-66
2021/11/14 01:30:16;;;;;;;2.40;1.67;;;;;;;6.20;100.00;101341.22;4965022;28;20058;-62
2021/11/14 01:33:04;;;;;;;2.20;1.42;;;;;;;6.22;100.00;101342.16;4951303;28;20070;-61
2021/11/14 01:35:49;;;;;;;2.50;1.50;;;;;;;6.27;100.00;101331.72;4953242;28;20137;-65
2021/11/14 01:38:35;;;;;;;;;;;;;;;6.38;100.00;101338.13;4936231;28;20098;-59
2021/11/14 01:41:19;;;;;;;3.17;1.40;;;;;;;6.17;100.00;101327.97;4956475;28;20337;-68
2021/11/14 01:44:08;;;;;;;2.63;1.33;;;;;;;6.08;100.00;101350.59;4968490;28;20062;-57
2021/11/14 01:46:53;;;;;;;2.90;1.50;;;;;;;6.17;100.00;101340.28;4945811;29;20050;-61
2021/11/14 01:49:38;;;;;;;1.73;1.25;;;;;;;6.21;100.00;101343.00;4936505;29;20518;-62
2021/11/14 01:52:27;;;;;;;2.35;1.38;;;;;;;6.22;100.00;101351.81;4969884;28;20419;-57
2021/11/14 01:55:15;;;;;;;2.08;1.17;;;;;;;6.11;100.00;101358.56;4968247;28;20054;-63
2021/11/14 01:58:00;;;;;;;1.48;1.23;;;;;;;6.11;100.00;101353.28;4968803;28;20109;-64
2021/11/14 02:00:53;;;;;;;2.33;1.33;;;;;;;6.14;100.00;101356.91;4964038;28;20057;-60
2021/11/14 02:03:40;;;;;;;2.40;1.30;;;;;;;6.23;100.00;101341.31;4952083;28;20424;-61
2021/11/14 02:06:26;;;;;;;2.70;1.27;;;;;;;6.15;100.00;101350.78;4952319;28;20046;-60
2021/11/14 02:09:10;;;;;;;3.28;1.42;;;;;;;6.05;100.00;101354.03;4963390;28;20061;-59
2021/11/14 02:11:56;;;;;;;2.42;1.50;;;;;;;6.00;100.00;101352.16;4962646;28;20105;-61
2021/11/14 02:14:40;;;;;;;3.08;1.23;;;;;;;6.15;100.00;101349.88;4953616;28;20057;-62
2021/11/14 02:17:26;;;;;;;1.77;1.20;;;;;;;6.18;100.00;101356.13;4949790;28;20047;-61
2021/11/14 02:20:12;;;;;;;1.92;1.50;;;;;;;6.12;100.00;101353.34;4949460;28;20530;-60
2021/11/14 02:22:58;;;;;;;1.67;1.13;;;;;;;6.17;100.00;101351.69;4964245;28;20081;-61
2021/11/14 02:25:48;;;;;;;3.20;1.27;;;;;;;6.21;100.00;101347.41;4948379;29;20134;-58
2021/11/14 02:28:34;;;;;;;4.80;1.10;;;;;;;6.24;100.00;101355.34;4962591;28;20427;-61
2021/11/14 02:31:20;;;;;;;1.98;1.20;;;;;;;6.30;100.00;101344.97;4961812;28;20070;-61
2021/11/14 02:34:04;;;;;;;2.13;1.13;;;;;;;6.35;100.00;101351.22;4965581;28;20061;-59
2021/11/14 02:36:49;;;;;;;2.60;1.08;;;;;;;6.45;100.00;101356.72;4968761;28;20057;-69
2021/11/14 02:39:34;;;;;;;1.63;0.85;;;;;;;6.46;100.00;101355.88;4968250;28;20085;-60
2021/11/14 02:42:18;;;;;;;2.17;1.25;;;;;;;6.36;100.00;101360.88;4961383;28;20086;-56
2021/11/14 02:45:07;;;;;;;4.30;1.30;;;;;;;6.43;100.00;101360.16;4968000;28;20574;-61
2021/11/14 02:47:53;;;;;;;3.17;1.10;;;;;;;6.33;100.00;101363.47;4965230;28;20582;-57
2021/11/14 02:50:39;;;;;;;1.50;1.10;;;;;;;6.36;100.00;101363.53;4958738;28;20061;-59
2021/11/14 02:53:24;;;;;;;1.23;1.00;;;;;;;6.46;100.00;101376.06;4954119;28;20093;-56
2021/11/14 02:56:09;;;;;;;1.80;1.20;;;;;;;6.47;100.00;101370.81;4965072;28;20101;-62
2021/11/14 02:58:57;;;;;;;4.00;1.20;;;;;;;6.47;100.00;101362.91;4948803;28;20053;-59
2021/11/14 03:01:45;;;;;;;3.45;1.10;;;;;;;6.49;100.00;101360.31;4949469;28;20526;-57
2021/11/14 03:04:31;;;;;;;1.88;1.15;;;;;;;6.43;100.00;101366.34;4963968;28;20403;-57
2021/11/14 03:07:16;;;;;;;2.42;0.80;;;;;;;6.43;100.00;101360.16;4952573;28;20579;-56
2021/11/14 03:10:05;;;;;;;2.67;1.02;;;;;;;6.55;100.00;101361.34;4958700;28;20137;-61
2021/11/14 03:13:07;;;;;;;1.80;1.10;;;;;;;6.52;100.00;101360.41;4938881;28;20530;-58
2021/11/14 03:15:57;;;;;;;1.40;1.10;;;;;;;6.41;100.00;101348.72;4953797;28;20058;-59
2021/11/14 03:18:41;;;;;;;1.90;1.02;;;;;;;6.40;100.00;101344.28;4947512;28;20427;-60
2021/11/14 03:21:28;;;;;;;2.40;1.00;;;;;;;6.40;100.00;101352.19;4964393;28;20046;-61
2021/11/14 03:24:12;;;;;;;2.05;1.17;;;;;;;6.40;100.00;101349.56;4964355;28;20058;-58
2021/11/14 03:26:57;;;;;;;1.70;1.13;;;;;;;6.23;100.00;101345.66;4960882;28;20065;-59
2021/11/14 03:29:43;;;;;;;4.85;1.35;;;;;;;6.12;100.00;101355.06;4949772;28;20054;-57
2021/11/14 03:32:27;;;;;;;1.90;1.13;;;;;;;6.26;100.00;101349.28;4957688;28;20066;-65
2021/11/14 03:35:13;;;;;;;1.63;1.20;;;;;;;6.25;100.00;101355.38;4961806;28;20061;-60
2021/11/14 03:37:58;;;;;;;2.08;1.13;;;;;;;6.26;100.00;101348.38;4951021;28;20418;-66
2021/11/14 03:40:44;;;;;;;1.80;1.10;;;;;;;6.20;100.00;101359.66;4948464;28;20058;-68
2021/11/14 03:43:29;;;;;;;14.40;1.40;;;;;;;6.28;100.00;101352.81;4956045;28;20062;-58
2021/11/14 03:46:15;;;;;;;3.47;1.20;;;;;;;6.31;100.00;101345.00;4951994;28;20119;-57
2021/11/14 03:49:00;;;;;;;1.95;1.20;;;;;;;6.32;100.00;101346.78;4963555;28;20054;-57
2021/11/14 03:51:45;;;;;;;3.97;1.17;;;;;;;6.34;100.00;101338.91;4936761;29;20147;-59
2021/11/14 03:54:29;;;;;;;1.48;0.95;;;;;;;6.31;100.00;101344.09;4953623;28;20420;-60
2021/11/14 03:57:14;;;;;;;1.23;1.10;;;;;;;6.35;100.00;101341.56;4957331;28;20054;-61
2021/11/14 03:59:58;;;;;;;3.25;1.30;;;;;;;6.39;100.00;101346.06;4934518;29;20309;-66
2021/11/14 04:02:44;;;;;;;2.90;1.20;;;;;;;6.31;100.00;101339.72;4952055;28;20471;-62
2021/11/14 04:05:30;;;;;;;4.03;1.13;;;;;;;6.28;100.00;101341.38;4946991;28;20526;-62
2021/11/14 04:08:17;;;;;;;1.70;1.13;;;;;;;6.35;100.00;101343.31;4950458;28;20073;-60
2021/11/14 04:11:03;;;;;;;4.50;1.17;;;;;;;6.08;100.00;101345.31;4962847;28;20066;-65
2021/11/14 04:13:48;;;;;;;3.13;1.00;;;;;;;6.11;100.00;101354.19;4965517;28;20097;-61
2021/11/14 04:16:33;;;;;;;2.17;0.80;;;;;;;6.22;100.00;101344.81;4953287;28;20050;-54
2021/11/14 04:19:17;;;;;;;1.50;1.00;;;;;;;6.27;100.00;101342.25;4966436;28;20418;-58
2021/11/14 04:22:03;;;;;;;2.10;0.90;;;;;;;6.31;100.00;101352.91;4967593;28;20061;-61
2021/11/14 04:24:48;;;;;;;2.42;0.73;;;;;;;6.16;100.00;101365.72;4955932;28;20652;-60
2021/11/14 04:27:33;;;;;;;1.80;0.80;;;;;;;6.13;100.00;101355.09;4964941;28;20066;-59
2021/11/14 04:30:18;;;;;;;3.15;1.10;;;;;;;6.20;100.00;101356.13;4937169;28;20049;-61
2021/11/14 04:33:02;;;;;;;;;;;;;;;6.33;100.00;101347.66;4948016;28;20066;-68
2021/11/14 04:35:48;;;;;;;1.65;1.08;;;;;;;6.31;100.00;101362.53;4951881;28;20433;-61
2021/11/14 04:38:33;;;;;;;2.63;1.00;;;;;;;6.38;100.00;101354.81;4966703;28;20126;-61
2021/11/14 04:41:18;;;;;;;2.08;1.38;;;;;;;6.40;100.00;101353.09;4936017;28;20158;-57
2021/11/14 04:44:03;;;;;;;4.60;1.73;;;;;;;6.47;100.00;101356.75;4967505;28;20090;-61
2021/11/14 04:46:47;;;;;;;3.42;1.67;;;;;;;6.53;100.00;101352.50;4970117;28;20046;-62
2021/11/14 04:49:32;;;;;;;4.87;1.60;;;;;;;6.54;100.00;101358.66;4964480;28;20573;-61
2021/11/14 04:52:17;;;;;;;1.27;1.10;;;;;;;6.58;100.00;101363.16;4942019;29;20058;-60
2021/11/14 04:55:02;;;;;;;4.38;1.60;;;;;;;6.58;100.00;101352.59;4964279;28;20101;-60
2021/11/14 04:57:51;;;;;;;3.25;1.55;;;;;;;6.52;100.00;101349.84;4969482;28;20094;-59
2021/11/14 05:00:41;;;;;;;3.42;1.17;;;;;;;6.61;100.00;101350.03;4951069;28;20644;-58
2021/11/14 05:03:25;;;;;;;2.03;1.30;;;;;;;6.65;100.00;101365.94;4953288;28;20530;-59
2021/11/14 05:06:10;;;;;;;3.88;2.10;;;;;;;6.55;100.00;101344.63;4954261;28;20124;-62
2021/11/14 05:08:55;;;;;;;4.95;1.90;;;;;;;6.55;100.00;101365.72;4967868;28;20145;-58
2021/11/14 05:11:39;;;;;;;6.40;1.33;;;;;;;6.38;100.00;101357.47;4958908;28;20423;-64
2021/11/14 05:14:23;;;;;;;6.57;1.20;;;;;;;6.39;100.00;101351.31;4954958;28;20586;-62
2021/11/14 05:17:08;;;;;;;5.00;1.23;;;;;;;6.46;100.00;101355.88;4950702;29;20183;-63
2021/11/14 05:19:53;;;;;;;5.90;1.27;;;;;;;6.42;100.00;101368.94;4950256;28;20097;-62
2021/11/14 05:22:37;;;;;;;1.90;1.00;;;;;;;6.52;100.00;101373.56;4950383;28;20101;-67
2021/11/14 05:25:23;;;;;;;2.90;1.27;;;;;;;6.55;100.00;101369.25;4956542;28;20046;-64
2021/11/14 05:28:07;;;;;;;3.63;1.10;;;;;;;6.65;100.00;101370.34;4942561;28;20181;-63
2021/11/14 05:30:51;;;;;;;5.75;1.40;;;;;;;6.70;100.00;101371.31;4968555;28;20049;-63
2021/11/14 05:33:36;;;;;;;2.08;1.20;;;;;;;6.70;100.00;101372.22;4968360;28;20596;-64
2021/11/14 05:36:23;;;;;;;3.67;1.10;;;;;;;6.70;100.00;101374.84;4940404;28;20057;-62
2021/11/14 05:39:08;;;;;;;2.08;1.10;;;;;;;6.72;100.00;101382.78;4957802;28;20058;-63
2021/11/14 05:41:53;;;;;;;3.80;1.30;;;;;;;6.72;100.00;101374.88;4939734;28;20062;-71
2021/11/14 05:44:37;;;;;;;3.95;1.23;;;;;;;6.67;100.00;101377.41;4958861;28;20475;-65
2021/11/14 05:47:22;;;;;;;6.50;1.63;;;;;;;6.59;100.00;101375.47;4961333;28;20539;-65
2021/11/14 05:50:09;;;;;;;4.50;1.67;;;;;;;6.65;100.00;101372.97;4948305;28;20526;-62
2021/11/14 05:52:54;;;;;;;3.55;1.80;;;;;;;6.66;100.00;101373.00;4959295;28;20053;-63
2021/11/14 05:55:39;;;;;;;3.55;1.50;;;;;;;6.60;100.00;101374.63;4954523;28;20061;-64
2021/11/14 06:01:25;;;;;;;5.82;1.60;;;;;;;6.69;100.00;101380.09;4957629;28;20102;-62
2021/11/14 06:07:13;;;;;;;4.68;2.60;;;;;;;5.87;100.00;101373.78;4968554;28;20058;-62
2021/11/14 06:10:00;;;;;;;7.05;3.05;;;;;;;5.82;100.00;101380.69;4967680;28;20049;-67
2021/11/14 06:12:47;;;;;;;5.82;2.47;;;;;;;5.36;100.00;101382.94;4966127;28;20049;-66
2021/11/14 06:15:31;;;;;;;4.32;2.53;;;;;;;5.16;100.00;101386.78;4959260;28;20054;-64
2021/11/14 06:18:17;;;;;;;6.78;2.15;;;;;;;5.55;100.00;101380.84;4961540;28;20134;-65
2021/11/14 06:21:01;;;;;;;4.05;1.88;;;;;;;5.87;100.00;101381.69;4959596;28;20423;-63
2021/11/14 06:23:46;;;;;;;9.85;2.20;;;;;;;6.12;100.00;101384.03;4952582;28;20057;-64
2021/11/14 06:26:30;;;;;;;5.30;2.17;;;;;;;6.19;100.00;101378.97;4959878;28;20128;-66
2021/11/14 06:29:15;;;;;;;10.48;2.35;;;;;;;6.21;100.00;101365.84;4959355;28;20086;-64
2021/11/14 06:31:59;;;;;;;12.47;3.30;;;;;;;6.33;100.00;101368.75;4967718;28;20519;-72
2021/11/14 06:34:45;;;;;;;12.05;4.35;;;;;;;6.41;100.00;101378.56;4950059;28;20293;-67
2021/11/14 06:37:30;;;;;;;16.60;6.85;;;;;;;6.45;100.00;101371.66;4947077;28;20054;-70
2021/11/14 06:40:15;;;;;;;20.63;6.50;;;;;;;6.36;100.00;101377.59;4953204;28;20166;-66
2021/11/14 06:43:00;;;;;;;10.32;5.78;;;;;;;6.49;100.00;101373.50;4960418;28;20306;-73
2021/11/14 06:45:44;;;;;;;10.25;5.68;;;;;;;6.60;100.00;101378.13;4968581;28;20178;-66
2021/11/14 06:48:29;;;;;;;13.60;6.07;;;;;;;6.72;100.00;101378.38;4953415;28;20057;-70
2021/11/14 06:51:14;;;;;;;8.38;3.47;;;;;;;6.45;100.00;101375.16;4951377;28;20054;-66
2021/11/14 06:53:59;;;;;;;8.70;3.83;;;;;;;5.94;100.00;101389.78;4953371;28;20507;-66
2021/11/14 06:56:44;;;;;;;5.68;2.92;;;;;;;5.33;100.00;101388.16;4965515;28;20053;-70
2021/11/14 06:59:29;;;;;;;8.73;3.15;;;;;;;5.36;100.00;101390.84;4966829;28;20098;-65
2021/11/14 07:02:16;;;;;;;;;;;;;;;5.37;100.00;101393.50;4964024;28;20518;-68
2021/11/14 07:05:01;;;;;;;7.90;3.08;;;;;;;5.06;100.00;101385.63;4967519;28;20310;-66
2021/11/14 07:07:46;;;;;;;8.23;3.17;;;;;;;5.02;100.00;101388.16;4953585;28;20053;-67
2021/11/14 07:10:31;;;;;;;11.80;3.58;;;;;;;4.87;100.00;101391.25;4961134;28;20431;-67
2021/11/14 07:13:15;;;;;;;7.25;2.45;;;;;;;5.12;100.00;101390.19;4951494;28;20065;-68
2021/11/14 07:16:01;;;;;;;4.00;2.13;;;;;;;4.97;100.00;101391.56;4959161;28;20065;-69
2021/11/14 07:18:45;;;;;;;9.93;3.22;;;;;;;4.69;100.00;101390.72;4964468;28;20134;-68
2021/11/14 07:21:30;;;;;;;5.03;2.33;;;;;;;4.61;100.00;101385.25;4962045;28;20114;-77
2021/11/14 07:24:15;;;;;;;4.25;2.08;;;;;;;4.43;100.00;101382.06;4954359;28;20054;-64
2021/11/14 07:27:04;;;;;;;9.70;2.38;;;;;;;4.76;100.00;101395.28;4944219;28;20062;-63
2021/11/14 07:29:49;;;;;;;6.38;2.70;;;;;;;4.96;100.00;101392.38;4954664;28;20423;-68
2021/11/14 07:32:34;;;;;;;6.90;2.65;;;;;;;5.23;100.00;101389.63;4952422;28;20064;-66
2021/11/14 07:35:21;;;;;;;5.93;2.55;;;;;;;5.11;100.00;101396.28;4948655;28;20061;-67
2021/11/14 07:38:06;;;;;;;5.75;2.10;;;;;;;4.90;100.00;101381.69;4945198;28;20496;-71
2021/11/14 07:40:51;;;;;;;5.30;2.35;;;;;;;4.86;100.00;101390.34;4962041;28;20057;-65
2021/11/14 07:43:35;;;;;;;6.82;2.20;;;;;;;4.91;100.00;101390.50;4964776;28;20105;-65
2021/11/14 07:46:20;;;;;;;3.80;2.30;;;;;;;4.75;100.00;101381.25;4948951;28;20427;-65
2021/11/14 07:49:04;;;;;;;5.97;2.45;;;;;;;4.71;100.00;101389.91;4949375;28;20053;-67
2021/11/14 07:51:49;;;;;;;4.85;2.70;;;;;;;4.71;100.00;101389.03;4960824;28;20049;-65
2021/11/14 07:54:35;;;;;;;5.50;2.80;;;;;;;4.72;100.00;101389.03;4949938;28;20058;-67
2021/11/14 07:57:19;;;;;;;9.75;3.55;;;;;;;4.53;100.00;101391.09;4956111;28;20062;-65
2021/11/14 08:00:07;;;;;;;4.72;2.63;;;;;;;4.51;100.00;101390.19;4952407;28;20074;-66
2021/11/14 08:02:56;;;;;;;6.07;2.90;;;;;;;4.45;100.00;101392.59;4932527;28;20483;-72
2021/11/14 08:05:42;;;;;;;8.13;3.10;;;;;;;4.53;100.00;101386.75;4955789;28;20118;-66
2021/11/14 08:08:28;;;;;;;5.57;2.72;;;;;;;4.35;100.00;101393.16;4932080;28;20050;-66
2021/11/14 08:11:13;;;;;;;6.97;2.95;;;;;;;4.44;100.00;101389.06;4960667;28;20557;-65
2021/11/14 08:13:58;;;;;;;5.55;3.00;;;;;;;4.42;100.00;101389.88;4953836;28;20057;-64
2021/11/14 08:16:42;;;;;;;10.30;4.38;;;;;;;4.63;100.00;101388.78;4972788;28;20057;-66
2021/11/14 08:19:27;;;;;;;6.28;3.33;;;;;;;4.71;100.00;101389.91;4973524;28;20104;-64
2021/11/14 08:22:11;;;;;;;8.57;3.65;;;;;;;4.71;100.00;101384.66;4978791;28;20061;-73
2021/11/14 08:24:56;;;;;;;11.88;4.32;;;;;;;4.63;100.00;101373.03;4982083;28;20675;-63
2021/11/14 08:27:41;;;;;;;11.15;3.95;;;;;;;4.70;100.00;101380.25;4958095;28;20108;-63
2021/11/14 08:30:27;;;;;;;8.95;3.40;;;;;;;4.90;100.00;101378.16;4969948;28;20084;-66
2021/11/14 08:33:12;;;;;;;7.93;3.38;;;;;;;4.78;100.00;101380.44;4958316;28;20062;-65
2021/11/14 08:35:57;;;;;;;10.93;4.07;;;;;;;4.88;100.00;101378.13;4964407;28;20505;-63
2021/11/14 08:38:42;;;;;;;8.57;4.22;;;;;;;5.20;100.00;101375.50;4953038;28;20078;-66
2021/11/14 08:41:27;;;;;;;8.82;4.43;;;;;;;4.97;100.00;101370.53;4947525;28;20082;-68
2021/11/14 08:44:12;;;;;;;10.20;4.13;;;;;;;5.02;100.00;101362.75;4958054;28;20066;-65
2021/11/14 08:46:57;;;;;;;;;;;;;;;5.30;100.00;101364.41;4942593;28;20109;-70
2021/11/14 08:49:42;;;;;;;10.13;4.80;;;;;;;5.31;100.00;101366.16;4955486;28;19925;-71
2021/11/14 08:52:29;;;;;;;13.43;5.53;;;;;;;5.33;100.00;101357.47;4968669;28;20477;-65
2021/11/14 08:55:18;;;;;;;16.63;5.50;;;;;;;5.46;100.00;101358.69;4947816;28;20484;-65
2021/11/14 08:58:03;;;;;;;9.63;5.35;;;;;;;5.32;100.00;101352.16;4943040;28;20062;-67
2021/11/14 09:00:47;;;;;;;;;;;;;;;5.22;100.00;101342.25;4948607;28;20140;-62
2021/11/14 09:03:33;;;;;;;14.70;6.03;;;;;;;5.17;100.00;101341.25;4951330;28;19929;-64
2021/11/14 09:06:18;;;;;;;9.95;5.70;;;;;;;5.10;100.00;101337.53;4954914;28;20061;-66
2021/11/14 09:09:12;;;;;;;12.93;6.10;;;;;;;5.30;100.00;101336.34;4959776;28;20064;-66
2021/11/14 09:11:57;;;;;;;15.63;6.72;;;;;;;5.31;100.00;101338.13;4951226;28;20061;-64
2021/11/14 09:14:42;;;;;;;13.90;6.13;;;;;;;5.51;100.00;101336.00;4961265;28;20190;-67
2021/11/14 09:17:27;;;;;;;15.63;7.03;;;;;;;5.41;100.00;101324.34;4953320;28;20522;-62
2021/11/14 09:20:12;;;;;;;13.40;6.60;;;;;;;5.57;100.00;101326.50;4935903;28;20054;-63
2021/11/14 09:22:58;;;;;;;15.95;5.75;;;;;;;5.80;100.00;101322.69;4961680;28;20113;-63
2021/11/14 09:25:44;;;;;;;17.85;5.97;;;;;;;5.88;100.00;101322.91;4962864;28;20102;-66
2021/11/14 09:28:29;;;;;;;12.02;5.10;;;;;;;5.87;100.00;101322.03;4946768;28;20104;-63
2021/11/14 09:31:14;;;;;;;7.95;4.93;;;;;;;5.85;100.00;101326.34;4965833;28;20078;-63
2021/11/14 09:34:01;;;;;;;14.57;4.88;;;;;;;5.93;100.00;101319.53;4967846;28;20254;-63
2021/11/14 09:36:47;;;;;;;12.15;5.05;;;;;;;5.77;100.00;101319.13;4967879;28;20149;-64
2021/11/14 09:39:32;;;;;;;9.73;4.57;;;;;;;5.83;100.00;101311.38;4967512;28;20053;-64
2021/11/14 09:42:18;;;;;;;11.55;5.45;;;;;;;5.98;100.00;101306.50;4961116;28;20124;-64
2021/11/14 09:45:06;;;;;;;9.30;4.60;;;;;;;6.00;100.00;101310.94;4967540;28;20419;-63
2021/11/14 09:47:51;;;;;;;9.18;4.80;;;;;;;5.69;100.00;101312.78;4946330;28;20120;-66
2021/11/14 09:50:35;;;;;;;9.13;4.60;;;;;;;5.57;100.00;101305.47;4956945;28;20066;-62
2021/11/14 09:53:20;;;;;;;14.57;5.70;;;;;;;5.68;100.00;101311.88;4954085;28;20142;-63
2021/11/14 09:56:07;;;;;;;10.77;4.95;;;;;;;6.01;100.00;101307.44;4951570;28;20066;-63
2021/11/14 09:58:52;;;;;;;13.43;7.00;;;;;;;6.03;100.00;101300.47;4952172;28;20053;-64
2021/11/14 10:01:38;;;;;;;12.25;5.50;;;;;;;5.93;100.00;101294.97;4939067;28;20475;-61
2021/11/14 10:04:24;;;;;;;10.75;5.88;;;;;;;5.86;100.00;101304.47;4935310;29;20094;-63
2021/11/14 10:07:12;;;;;;;9.07;6.18;;;;;;;5.87;100.00;101307.97;4963256;28;20070;-65
2021/11/14 10:09:59;;;;;;;13.68;6.40;;;;;;;5.86;100.00;101300.94;4954394;28;20057;-62
2021/11/14 10:12:44;;;;;;;20.85;6.25;;;;;;;6.18;100.00;101292.03;4941989;28;20581;-66
2021/11/14 10:15:28;;;;;;;9.57;5.68;;;;;;;6.15;100.00;101290.22;4953712;28;20418;-69
2021/11/14 10:18:13;;;;;;;8.60;5.35;;;;;;;5.87;100.00;101285.19;4967611;28;20046;-64
2021/11/14 10:21:01;;;;;;;10.70;5.35;;;;;;;5.73;100.00;101289.19;4956164;28;20077;-67
2021/11/14 10:23:48;;;;;;;12.85;5.13;;;;;;;5.73;100.00;101280.44;4952052;28;20159;-63
2021/11/14 10:26:34;;;;;;;15.10;5.80;;;;;;;5.74;100.00;101282.19;4963654;28;20226;-65
2021/11/14 10:29:21;;;;;;;9.93;5.00;;;;;;;5.53;100.00;101271.19;4969078;28;20082;-63
2021/11/14 10:32:10;;;;;;;9.07;4.40;;;;;;;5.45;100.00;101275.38;4967641;28;20737;-63
2021/11/14 10:35:04;;;;;;;11.15;4.60;;;;;;;5.49;100.00;101270.19;4932595;29;20199;-64
2021/11/14 10:37:49;;;;;;;14.82;5.18;;;;;;;5.51;100.00;101267.59;4949708;28;20210;-62
2021/11/14 10:40:38;;;;;;;10.23;5.53;;;;;;;5.37;100.00;101269.91;4959557;28;20058;-65
2021/11/14 10:43:25;;;;;;;8.63;4.18;;;;;;;5.38;100.00;101266.41;4958179;28;20070;-69
2021/11/14 10:46:22;;;;;;;10.20;4.60;;;;;;;5.44;100.00;101258.69;4954686;28;20109;-64
2021/11/14 10:49:09;;;;;;;8.43;4.30;;;;;;;5.54;100.00;101262.41;4955185;28;20044;-63
2021/11/14 10:51:58;;;;;;;9.80;5.68;;;;;;;5.54;100.00;101257.16;4954216;28;20134;-70
2021/11/14 10:54:44;;;;;;;9.20;5.28;;;;;;;5.59;100.00;101259.06;4936321;28;20065;-63
2021/11/14 10:57:32;;;;;;;11.50;5.13;;;;;;;5.52;100.00;101253.59;4935686;28;20164;-64
2021/11/14 11:00:21;;;;;;;9.80;4.55;;;;;;;5.58;100.00;101257.25;4947417;28;20137;-64
2021/11/14 11:03:09;;;;;;;11.63;4.75;;;;;;;5.64;100.00;101254.78;4942917;29;20106;-64
2021/11/14 11:05:55;;;;;;;10.27;5.00;;;;;;;5.71;100.00;101245.28;4944154;28;20050;-62
2021/11/14 11:08:45;;;;;;;10.80;3.95;;;;;;;5.47;100.00;101258.75;4952346;28;20053;-63
2021/11/14 11:11:31;;;;;;;8.00;3.78;;;;;;;5.42;100.00;101248.97;4951395;28;20174;-67
2021/11/14 11:14:26;;;;;;;7.95;3.63;;;;;;;5.49;100.00;101241.25;4944470;29;20058;-60
2021/11/14 11:17:10;;;;;;;9.32;3.47;;;;;;;5.51;100.00;101252.72;4965268;28;20077;-59
2021/11/14 11:20:07;;;;;;;7.38;3.78;;;;;;;5.52;100.00;101251.84;4946167;28;20097;-63
2021/11/14 11:23:03;;;;;;;9.48;4.70;;;;;;;5.64;100.00;101245.97;4960716;28;20138;-65
2021/11/14 11:25:57;;;;;;;9.10;4.63;;;;;;;5.43;100.00;101254.28;4948736;28;20564;-65
2021/11/14 11:28:47;;;;;;;8.52;3.80;;;;;;;5.17;100.00;101241.34;4957418;28;20054;-62
2021/11/14 11:31:34;;;;;;;5.75;3.60;;;;;;;5.14;100.00;101244.75;4932255;28;20527;-66
2021/11/14 11:34:24;;;;;;;7.63;4.57;;;;;;;5.12;100.00;101243.84;4946080;29;20942;-60
2021/11/14 11:37:12;;;;;;;10.43;5.07;;;;;;;4.96;100.00;101237.28;4962866;28;20133;-66
2021/11/14 11:40:00;;;;;;;7.70;4.55;;;;;;;4.91;100.00;101244.19;4947270;28;20058;-68
2021/11/14 11:42:47;;;;;;;10.70;5.03;;;;;;;4.75;100.00;101231.50;4949530;28;20110;-64
2021/11/14 11:45:42;;;;;;;15.50;6.60;;;;;;;4.77;100.00;101234.16;4962409;28;20058;-63
2021/11/14 11:48:39;;;;;;;14.25;7.32;;;;;;;4.71;100.00;101228.75;4950842;28;20097;-61
2021/11/14 11:51:36;;;;;;;16.65;7.47;;;;;;;4.82;100.00;101240.41;4939594;28;20062;-63
2021/11/14 11:54:25;;;;;;;11.48;5.72;;;;;;;4.76;100.00;101221.88;4950435;28;20444;-62
2021/11/14 11:57:13;;;;;;;8.93;5.55;;;;;;;4.75;100.00;101222.75;4959922;28;20138;-69
2021/11/14 12:00:04;;;;;;;7.88;4.72;;;;;;;4.69;100.00;101228.72;4961046;28;20069;-63
2021/11/14 12:03:25;;;;;;;6.78;4.50;;;;;;;4.76;100.00;101222.75;4950163;28;20050;-59
2021/11/14 12:06:23;;;;;;;7.55;4.55;;;;;;;4.86;100.00;101224.78;4951109;28;20446;-65
2021/11/14 12:09:12;;;;;;;10.23;4.93;;;;;;;4.94;100.00;101227.59;4948789;28;20123;-66
2021/11/14 12:11:57;;;;;;;9.20;5.20;;;;;;;5.03;100.00;101214.72;4961226;28;20070;-64
2021/11/14 12:14:41;;;;;;;9.25;5.50;;;;;;;4.81;100.00;101212.38;4950555;28;20471;-64
2021/11/14 12:17:30;;;;;;;11.93;5.47;;;;;;;4.87;100.00;101212.53;4936567;29;20078;-68
2021/11/14 12:20:17;;;;;;;12.70;5.53;;;;;;;4.83;100.00;101210.69;4958603;28;20130;-63
2021/11/14 12:23:17;;;;;;;12.73;5.47;;;;;;;4.89;100.00;101209.09;4948305;28;20058;-67
2021/11/14 12:26:09;;;;;;;11.10;4.78;;;;;;;5.00;100.00;101210.25;4943720;28;20538;-69
2021/11/14 12:28:58;;;;;;;8.50;5.20;;;;;;;4.85;100.00;101208.97;4937800;28;20097;-64
2021/11/14 12:31:49;;;;;;;8.65;4.95;;;;;;;4.79;100.00;101203.56;4954562;28;20089;-65
2021/11/14 12:34:34;;;;;;;9.68;5.75;;;;;;;4.66;100.00;101210.25;4944094;29;20082;-70
2021/11/14 12:37:18;;;;;;;9.90;5.55;;;;;;;4.50;100.00;101200.19;4957991;28;20054;-62
2021/11/14 12:40:13;;;;;;;8.30;5.47;;;;;;;4.66;100.00;101194.47;4948318;28;20086;-68
2021/11/14 12:43:12;;;;;;;12.88;5.70;;;;;;;4.58;100.00;101195.09;4969896;28;20056;-64
2021/11/14 12:46:08;;;;;;;5.63;3.55;;;;;;;4.43;100.00;101192.06;4969207;28;20069;-65
2021/11/14 12:48:54;;;;;;;7.63;4.10;;;;;;;4.29;100.00;101188.19;4953715;28;20050;-64
2021/11/14 12:51:39;;;;;;;7.13;3.80;;;;;;;4.18;100.00;101184.38;4965620;28;20592;-64
2021/11/14 12:54:26;;;;;;;6.00;3.67;;;;;;;4.23;100.00;101178.41;4966904;28;20105;-66
2021/11/14 12:57:14;;;;;;;8.07;4.20;;;;;;;4.26;100.00;101173.25;4953667;28;20085;-63
2021/11/14 12:59:59;;;;;;;6.00;3.70;;;;;;;4.17;100.00;101166.84;4951359;28;20085;-66